Time;durP1;ratioP1;P1;durP2;ratioP2;P2;SDS_P1;SDS_P2;PMS_P1;PMS_P2;Temp;Humidity;BMP_temperature;BMP_pressure;BME280_temperature;BME280_humidity;BME280_pressure;Samples;Min_cycle;Max_cycle;Signal;HPM_P1;HPM_P2
2020/12/14 00:10:04;;;;;;;0.20;0.00;;;9.50;99.90;;;;;;20978460;28;20282;-73
2020/12/14 00:20:07;;;;;;;0.20;0.00;;;11.00;99.90;;;;;;20971452;28;20236;-73
2020/12/14 00:30:10;;;;;;;0.20;0.10;;;10.40;99.90;;;;;;20898877;28;20648;-73
2020/12/14 00:40:13;;;;;;;0.77;0.23;;;11.10;99.90;;;;;;20942842;28;20228;-74
2020/12/14 00:50:16;;;;;;;0.90;0.90;;;10.10;99.90;;;;;;20981876;28;20272;-74
2020/12/14 01:00:19;;;;;;;1.17;1.10;;;9.80;99.90;;;;;;20917900;23;20323;-75
2020/12/14 01:43:32;;;;;;;0.20;0.20;;;11.50;99.90;;;;;;20747274;28;20225;-76
2020/12/14 01:53:35;;;;;;;0.20;0.10;;;11.20;99.90;;;;;;20873747;28;20292;-76
2020/12/14 02:03:39;;;;;;;4.90;0.70;;;11.00;99.90;;;;;;20962024;22;20229;-69
2020/12/14 02:13:42;;;;;;;5.30;0.60;;;11.10;99.90;;;;;;20993874;28;21433;-70
2020/12/14 02:23:45;;;;;;;0.20;0.10;;;10.70;99.90;;;;;;20992746;28;20570;-70
2020/12/14 02:33:49;;;;;;;0.30;0.20;;;10.80;99.90;;;;;;20992152;28;20185;-70
2020/12/14 02:43:51;;;;;;;0.33;0.33;;;11.00;99.90;;;;;;20991707;28;20311;-69
2020/12/14 02:53:55;;;;;;;0.20;0.20;;;10.70;99.90;;;;;;20990064;28;20193;-70
2020/12/14 03:03:59;;;;;;;0.20;0.10;;;9.60;99.90;;;;;;20990017;28;20708;-69
2020/12/14 03:14:03;;;;;;;0.20;0.13;;;9.00;99.90;;;;;;20989366;28;20707;-69
2020/12/14 03:24:06;;;;;;;0.23;0.20;;;8.50;99.90;;;;;;20988077;28;20236;-70
2020/12/14 03:34:09;;;;;;;0.43;0.40;;;8.30;99.90;;;;;;20987608;28;20260;-70
2020/12/14 03:44:12;;;;;;;1.40;0.77;;;8.40;99.90;;;;;;20986198;28;20258;-69
2020/12/14 03:54:15;;;;;;;0.20;0.10;;;8.50;99.90;;;;;;20985698;28;20247;-69
2020/12/14 04:04:17;;;;;;;0.97;0.50;;;8.00;99.90;;;;;;20982235;28;20347;-70
2020/12/14 04:14:22;;;;;;;1.60;1.50;;;8.20;99.90;;;;;;20983128;28;20197;-71
2020/12/14 04:24:26;;;;;;;0.20;0.20;;;8.00;99.90;;;;;;20965230;28;20224;-68
2020/12/14 04:34:29;;;;;;;0.20;0.20;;;7.90;99.90;;;;;;20982507;28;20288;-72
2020/12/14 04:44:33;;;;;;;0.20;0.10;;;7.90;99.90;;;;;;20964781;28;20709;-69
2020/12/14 04:54:37;;;;;;;0.20;0.10;;;8.20;99.90;;;;;;20981508;28;20590;-69
2020/12/14 05:04:40;;;;;;;0.27;0.27;;;7.90;99.90;;;;;;20981277;28;20319;-73
2020/12/14 05:14:44;;;;;;;0.20;0.10;;;7.90;99.90;;;;;;20981274;28;20283;-75
2020/12/14 05:24:50;;;;;;;0.40;0.40;;;8.30;99.90;;;;;;20989742;28;20335;-74
2020/12/14 05:34:54;;;;;;;0.40;0.30;;;8.50;99.90;;;;;;20997300;28;20207;-74
2020/12/14 05:44:57;;;;;;;0.20;0.20;;;8.80;99.90;;;;;;20995984;28;20223;-75
2020/12/14 05:55:01;;;;;;;0.20;0.10;;;9.10;99.90;;;;;;20995007;28;20216;-75
2020/12/14 06:05:05;;;;;;;0.20;0.10;;;9.40;99.90;;;;;;20993156;28;20578;-74
2020/12/14 06:15:12;;;;;;;1.13;0.63;;;9.40;99.90;;;;;;20994154;28;20284;-74
2020/12/14 06:25:16;;;;;;;0.20;0.13;;;9.60;99.90;;;;;;20991928;28;20307;-73
2020/12/14 06:35:41;;;;;;;7.93;1.33;;;9.60;99.90;;;;;;20972507;28;20688;-74
2020/12/14 06:45:49;;;;;;;0.20;0.20;;;9.80;99.90;;;;;;20989860;28;20267;-75
2020/12/14 06:55:53;;;;;;;0.20;0.10;;;9.80;99.90;;;;;;20985412;28;20629;-74
2020/12/14 07:06:00;;;;;;;0.70;0.63;;;9.90;99.90;;;;;;20963695;28;20651;-74
2020/12/14 07:16:08;;;;;;;0.23;0.23;;;10.40;99.90;;;;;;20983938;28;20201;-75
2020/12/14 07:26:13;;;;;;;0.20;0.10;;;10.50;99.90;;;;;;20981837;28;20227;-74
2020/12/14 07:36:16;;;;;;;0.60;0.60;;;10.60;99.90;;;;;;20983232;28;20280;-72
2020/12/14 07:46:27;;;;;;;0.73;0.57;;;10.80;99.90;;;;;;20981774;28;20232;-71
2020/12/14 07:56:31;;;;;;;0.57;0.37;;;11.00;99.90;;;;;;20980192;28;20192;-76
2020/12/14 08:06:37;;;;;;;0.30;0.30;;;11.10;99.90;;;;;;20963866;28;20319;-72
2020/12/14 08:16:43;;;;;;;6.50;0.83;;;11.70;99.90;;;;;;20978980;28;20295;-71
2020/12/14 08:26:47;;;;;;;2.90;0.73;;;12.10;99.90;;;;;;20980165;28;20231;-72
2020/12/14 08:36:54;;;;;;;0.63;0.63;;;12.30;99.90;;;;;;20978245;28;20279;-73
2020/12/14 08:46:58;;;;;;;0.93;0.47;;;12.40;99.90;;;;;;20958672;28;20253;-71
2020/12/14 08:57:02;;;;;;;0.77;0.50;;;12.50;99.90;;;;;;20981155;28;20208;-71
2020/12/14 09:07:05;;;;;;;6.03;1.13;;;12.70;99.90;;;;;;20979357;28;20247;-71
2020/12/14 09:17:13;;;;;;;0.60;0.60;;;13.00;99.90;;;;;;20979142;28;20217;-72
2020/12/14 09:27:16;;;;;;;1.73;0.30;;;13.40;99.90;;;;;;20944884;28;20248;-71
2020/12/14 09:37:20;;;;;;;2.03;0.87;;;13.70;99.90;;;;;;20938440;28;20185;-72
2020/12/14 09:47:23;;;;;;;2.00;0.93;;;14.30;99.90;;;;;;20971192;28;20705;-72
2020/12/14 09:57:26;;;;;;;1.17;0.90;;;14.60;99.90;;;;;;20892208;28;20221;-72
2020/12/14 10:07:29;;;;;;;1.73;1.53;;;14.90;99.90;;;;;;20897139;28;20336;-71
2020/12/14 10:17:33;;;;;;;2.13;1.17;;;15.10;99.90;;;;;;20907235;28;20685;-71
2020/12/14 10:27:37;;;;;;;0.20;0.20;;;15.70;99.90;;;;;;20945219;28;20220;-72
2020/12/14 10:37:41;;;;;;;2.83;1.27;;;15.60;99.90;;;;;;20989644;28;20275;-72
2020/12/14 10:47:44;;;;;;;0.97;0.87;;;15.60;99.90;;;;;;20989707;28;20255;-73
2020/12/14 10:57:51;;;;;;;0.33;0.33;;;15.60;99.90;;;;;;20990316;28;20197;-73
2020/12/14 11:07:54;;;;;;;0.20;0.20;;;15.90;99.90;;;;;;20987559;28;20295;-72
2020/12/14 11:17:58;;;;;;;0.77;0.67;;;16.90;99.90;;;;;;20985972;28;20650;-71
2020/12/14 11:28:00;;;;;;;0.60;0.50;;;16.60;99.90;;;;;;20945592;28;20235;-71
2020/12/14 11:38:05;;;;;;;0.40;0.17;;;16.40;99.90;;;;;;20902806;28;20625;-72
2020/12/14 11:48:07;;;;;;;2.87;0.50;;;16.10;99.90;;;;;;20901787;28;20224;-71
2020/12/14 11:58:13;;;;;;;0.97;0.37;;;16.50;99.90;;;;;;20902134;28;20572;-72
2020/12/14 12:08:16;;;;;;;0.60;0.60;;;16.70;99.90;;;;;;20899917;28;20797;-72
2020/12/14 12:18:19;;;;;;;0.57;0.57;;;17.10;99.90;;;;;;20900199;28;20228;-73
2020/12/14 12:28:22;;;;;;;0.27;0.20;;;17.40;99.90;;;;;;20944536;28;20252;-70
2020/12/14 12:38:25;;;;;;;2.50;1.23;;;17.60;99.90;;;;;;20974164;28;20290;-72
2020/12/14 12:48:27;;;;;;;1.80;1.37;;;17.30;99.90;;;;;;20972777;28;20261;-72
2020/12/14 12:58:31;;;;;;;4.27;1.47;;;17.30;99.90;;;;;;20962683;28;20200;-71
2020/12/14 13:08:34;;;;;;;1.97;1.10;;;17.50;99.90;;;;;;20979536;28;20324;-72
2020/12/14 13:18:45;;;;;;;0.60;0.53;;;16.70;99.90;;;;;;20980116;28;20204;-73
2020/12/14 13:28:49;;;;;;;1.73;1.00;;;16.40;99.90;;;;;;20929011;28;20351;-71
2020/12/14 13:38:53;;;;;;;0.83;0.80;;;16.40;99.90;;;;;;20973841;28;20256;-70
2020/12/14 13:48:55;;;;;;;7.23;3.57;;;16.60;99.90;;;;;;20983174;28;20576;-72
2020/12/14 13:58:59;;;;;;;6.50;4.17;;;16.90;99.90;;;;;;20975293;28;20287;-73
2020/12/14 14:09:01;;;;;;;7.30;2.27;;;16.50;99.90;;;;;;20975097;28;20364;-72
2020/12/14 14:19:05;;;;;;;0.70;0.70;;;16.00;99.90;;;;;;20991937;28;20722;-72
2020/12/14 14:29:07;;;;;;;0.63;0.40;;;15.90;99.90;;;;;;20990462;28;20685;-73
2020/12/14 14:39:14;;;;;;;1.07;0.97;;;15.70;99.90;;;;;;20990395;28;20288;-72
2020/12/14 14:49:17;;;;;;;0.20;0.20;;;15.70;99.90;;;;;;20989794;28;20471;-72
2020/12/14 14:59:21;;;;;;;0.70;0.53;;;15.60;99.90;;;;;;20953672;28;20246;-75
2020/12/14 15:09:23;;;;;;;1.80;1.60;;;15.40;99.90;;;;;;20988423;28;20193;-71
2020/12/14 15:19:26;;;;;;;0.53;0.47;;;15.20;99.90;;;;;;20986505;28;20288;-72
2020/12/14 15:29:29;;;;;;;1.10;1.07;;;15.10;99.90;;;;;;20933170;28;20198;-72
2020/12/14 15:39:33;;;;;;;1.17;0.50;;;15.40;99.90;;;;;;20902016;28;20281;-72
2020/12/14 15:49:36;;;;;;;0.90;0.63;;;15.20;99.90;;;;;;20901744;28;20216;-72
2020/12/14 15:59:39;;;;;;;0.63;0.63;;;15.00;99.90;;;;;;20876174;28;20236;-71
2020/12/14 16:09:42;;;;;;;2.03;1.37;;;15.10;99.90;;;;;;20882251;28;20258;-73
2020/12/14 16:19:46;;;;;;;6.63;1.00;;;15.10;99.90;;;;;;20961065;28;20224;-73
2020/12/14 16:29:49;;;;;;;1.63;0.97;;;15.10;99.90;;;;;;20923602;28;20203;-71
2020/12/14 16:39:52;;;;;;;0.77;0.70;;;14.80;99.90;;;;;;20895589;28;20214;-71
2020/12/14 16:49:55;;;;;;;0.77;0.53;;;14.90;99.90;;;;;;20896256;28;20552;-69
2020/12/14 16:59:59;;;;;;;0.43;0.37;;;14.80;99.90;;;;;;20896130;28;20221;-73
2020/12/14 17:10:02;;;;;;;1.13;1.03;;;14.80;99.90;;;;;;20876771;28;20200;-73
2020/12/14 17:20:07;;;;;;;1.23;1.07;;;14.90;99.90;;;;;;20965422;28;20449;-70
2020/12/14 17:30:10;;;;;;;2.97;2.67;;;14.70;99.90;;;;;;20970786;28;20225;-70
2020/12/14 17:40:13;;;;;;;0.73;0.73;;;14.70;99.90;;;;;;20987914;28;20307;-70
2020/12/14 17:50:16;;;;;;;5.60;2.33;;;14.70;99.90;;;;;;20993014;28;20251;-70
2020/12/14 18:00:19;;;;;;;7.60;4.60;;;14.60;99.90;;;;;;20975755;28;20252;-76
2020/12/14 18:10:22;;;;;;;1.23;1.13;;;14.30;99.90;;;;;;20991817;28;20228;-71
2020/12/14 18:20:25;;;;;;;1.03;0.93;;;13.70;99.90;;;;;;20990997;28;20331;-72
2020/12/14 18:30:28;;;;;;;2.60;1.53;;;13.40;99.90;;;;;;20929059;28;20601;-72
2020/12/14 21:26:52;;;;;;;7.37;1.77;;;12.80;99.90;;;;;;20979604;28;20576;-73
2020/12/14 21:36:56;;;;;;;1.13;1.00;;;12.60;99.90;;;;;;20981026;28;20662;-72
2020/12/14 21:47:02;;;;;;;4.63;1.57;;;12.60;99.90;;;;;;20981062;28;20225;-72
2020/12/14 21:57:05;;;;;;;4.10;1.57;;;12.50;99.90;;;;;;20980675;28;20677;-72
2020/12/14 22:07:08;;;;;;;3.20;1.33;;;12.60;99.90;;;;;;20987749;28;20231;-71
2020/12/14 22:17:15;;;;;;;1.00;0.90;;;12.90;99.90;;;;;;20994244;28;20561;-72
2020/12/14 22:27:19;;;;;;;1.40;1.03;;;12.80;99.90;;;;;;20993511;28;20286;-72
2020/12/14 22:37:21;;;;;;;2.40;1.63;;;12.60;99.90;;;;;;20974514;28;20705;-72
2020/12/14 22:47:29;;;;;;;2.17;1.07;;;12.70;99.90;;;;;;20964403;28;20217;-72
2020/12/14 22:57:32;;;;;;;1.13;0.90;;;12.50;99.90;;;;;;20957511;28;20192;-71
2020/12/14 23:07:35;;;;;;;1.00;0.87;;;12.50;99.90;;;;;;20990212;28;20260;-72
2020/12/14 23:17:46;;;;;;;2.20;1.67;;;12.70;99.90;;;;;;20989468;28;20545;-71
2020/12/14 23:27:49;;;;;;;0.40;0.30;;;12.50;99.90;;;;;;20988121;28;20255;-71
2020/12/14 23:37:52;;;;;;;2.53;1.00;;;12.30;99.90;;;;;;20946415;28;20280;-72
2020/12/14 23:48:02;;;;;;;3.00;2.37;;;12.20;99.90;;;;;;20943665;28;20584;-72
2020/12/14 23:58:05;;;;;;;1.13;1.07;;;12.10;99.90;;;;;;20943193;28;20269;-72
